createdAt,value
2022-11-08T00:01:58.560Z,5.50
2022-11-08T00:04:32.600Z,5.15
2022-11-08T00:07:24.462Z,4.45
2022-11-08T00:10:17.445Z,4.63
2022-11-08T00:13:08.602Z,4.72
2022-11-08T00:15:42.498Z,4.80
2022-11-08T00:18:16.727Z,4.85
2022-11-08T00:20:51.551Z,4.25
2022-11-08T00:23:25.458Z,4.45
2022-11-08T00:26:00.750Z,4.13
2022-11-08T00:28:34.589Z,3.47
2022-11-08T00:31:08.570Z,5.03
2022-11-08T00:33:42.369Z,3.78
2022-11-08T00:38:49.814Z,3.80
2022-11-08T00:41:25.159Z,4.05
2022-11-08T00:43:59.264Z,4.45
2022-11-08T00:46:33.088Z,4.03
2022-11-08T00:51:40.961Z,3.78
2022-11-08T00:54:16.302Z,4.15
2022-11-08T00:56:51.777Z,3.50
2022-11-08T00:59:25.652Z,3.80
2022-11-08T01:04:33.303Z,4.32
2022-11-08T01:07:07.144Z,3.80
2022-11-08T01:09:41.220Z,3.75
2022-11-08T01:12:16.600Z,4.35
2022-11-08T01:14:50.564Z,3.45
2022-11-08T01:17:24.438Z,2.97
2022-11-08T01:19:58.310Z,3.47
2022-11-08T01:25:06.774Z,3.63
2022-11-08T01:27:43.693Z,3.50
2022-11-08T01:30:17.818Z,3.00
2022-11-08T01:32:51.919Z,3.45
2022-11-08T01:35:26.081Z,3.30
2022-11-08T01:37:59.944Z,3.40
2022-11-08T01:40:34.440Z,3.33
2022-11-08T01:43:40.854Z,3.38
2022-11-08T01:46:45.685Z,3.17
2022-11-08T01:49:40.200Z,3.40
2022-11-08T01:52:29.012Z,3.00
2022-11-08T01:55:09.406Z,3.47
2022-11-08T01:57:49.177Z,3.42
2022-11-08T02:00:23.324Z,4.07
2022-11-08T02:03:01.046Z,3.10
2022-11-08T02:05:35.690Z,3.53
2022-11-08T02:08:16.680Z,2.95
2022-11-08T02:10:52.989Z,2.95
2022-11-08T02:13:28.311Z,3.00
2022-11-08T02:16:02.746Z,3.00
2022-11-08T02:18:38.036Z,3.53
2022-11-08T02:21:17.983Z,3.10
2022-11-08T02:23:55.197Z,2.90
2022-11-08T02:26:32.773Z,2.58
2022-11-08T02:29:25.856Z,2.75
2022-11-08T02:32:00.840Z,3.60
2022-11-08T02:34:39.060Z,3.30
2022-11-08T02:37:14.262Z,3.78
2022-11-08T02:39:49.725Z,3.15
2022-11-08T02:42:23.486Z,3.05
2022-11-08T02:47:30.931Z,3.27
2022-11-08T02:50:05.609Z,2.72
2022-11-08T02:52:39.462Z,2.45
2022-11-08T02:57:48.302Z,2.97
2022-11-08T03:02:56.528Z,2.67
2022-11-08T03:05:31.073Z,2.97
2022-11-08T03:08:05.236Z,2.72
2022-11-08T03:10:40.590Z,2.50
2022-11-08T03:13:14.552Z,2.42
2022-11-08T03:15:48.575Z,3.33
2022-11-08T03:18:22.546Z,2.50
2022-11-08T03:20:56.361Z,2.60
2022-11-08T03:26:06.731Z,2.33
2022-11-08T03:28:40.839Z,3.05
2022-11-08T03:31:14.668Z,2.95
2022-11-08T03:36:22.159Z,2.80
2022-11-08T03:38:56.291Z,2.72
2022-11-08T03:41:31.621Z,2.47
2022-11-08T03:44:05.946Z,2.58
2022-11-08T03:46:39.868Z,2.78
2022-11-08T03:49:13.791Z,3.00
2022-11-08T03:51:47.708Z,2.67
2022-11-08T03:54:21.626Z,2.17
2022-11-08T03:56:56.989Z,2.22
2022-11-08T03:59:30.873Z,1.95
2022-11-08T04:02:05.100Z,3.40
2022-11-08T04:04:39.072Z,2.70
2022-11-08T04:07:13.181Z,2.20
2022-11-08T04:09:47.127Z,2.65
2022-11-08T04:12:40.011Z,2.55
2022-11-08T04:15:16.586Z,2.20
2022-11-08T04:18:08.835Z,2.85
2022-11-08T04:21:01.568Z,2.65
2022-11-08T04:23:38.245Z,2.83
2022-11-08T04:26:12.227Z,2.50
2022-11-08T04:28:47.771Z,2.25
2022-11-08T04:31:22.318Z,2.60
2022-11-08T04:33:56.329Z,2.42
2022-11-08T04:36:30.337Z,2.65
2022-11-08T04:39:04.830Z,2.40
2022-11-08T04:41:38.737Z,2.70
2022-11-08T04:44:15.716Z,2.55
2022-11-08T04:46:49.675Z,2.70
2022-11-08T04:49:23.535Z,2.70
2022-11-08T04:51:57.533Z,2.40
2022-11-08T04:54:31.394Z,2.85
2022-11-08T04:59:40.600Z,2.35
2022-11-08T05:02:14.763Z,2.10
2022-11-08T05:04:49.023Z,2.88
2022-11-08T05:07:22.967Z,2.70
2022-11-08T05:09:59.941Z,3.10
2022-11-08T05:12:36.299Z,2.63
2022-11-08T05:17:45.665Z,2.63
2022-11-08T05:23:26.569Z,2.70
2022-11-08T05:26:00.379Z,2.40
2022-11-08T05:31:09.741Z,3.23
2022-11-08T05:33:43.860Z,3.03
2022-11-08T05:36:18.284Z,2.67
2022-11-08T05:38:52.125Z,2.90
2022-11-08T05:41:27.317Z,2.80
2022-11-08T05:44:01.156Z,2.88
2022-11-08T05:49:10.005Z,2.92
2022-11-08T05:54:17.461Z,2.80
2022-11-08T05:56:52.082Z,2.50
2022-11-08T05:59:25.882Z,2.92
2022-11-08T06:04:34.792Z,2.40
2022-11-08T06:07:08.792Z,2.80
2022-11-08T06:09:42.677Z,2.88
2022-11-08T06:12:16.565Z,2.30
2022-11-08T06:14:50.542Z,3.50
2022-11-08T06:17:27.657Z,2.53
2022-11-08T06:20:07.245Z,2.92
2022-11-08T06:22:41.084Z,2.83
2022-11-08T06:25:14.931Z,3.20
2022-11-08T06:27:48.806Z,3.05
2022-11-08T06:30:22.853Z,3.17
2022-11-08T06:33:00.617Z,2.97
2022-11-08T06:35:34.594Z,2.55
2022-11-08T06:38:09.647Z,3.35
2022-11-08T06:40:45.015Z,3.22
2022-11-08T06:43:20.217Z,3.22
2022-11-08T06:45:54.371Z,2.90
2022-11-08T06:48:35.036Z,4.20
2022-11-08T06:51:09.957Z,4.03
2022-11-08T06:53:44.068Z,4.03
2022-11-08T06:56:18.033Z,6.65
2022-11-08T06:58:53.016Z,6.43
2022-11-08T07:01:26.967Z,5.38
2022-11-08T07:04:02.346Z,5.45
2022-11-08T07:06:36.246Z,5.55
2022-11-08T07:09:10.164Z,5.70
2022-11-08T07:11:44.068Z,5.13
2022-11-08T07:14:17.971Z,4.75
2022-11-08T07:16:51.909Z,4.45
2022-11-08T07:19:27.216Z,5.03
2022-11-08T07:22:01.499Z,5.43
2022-11-08T07:24:35.606Z,5.13
2022-11-08T07:27:09.534Z,4.75
2022-11-08T07:29:43.506Z,8.38
2022-11-08T07:32:17.428Z,13.93
2022-11-08T07:34:52.813Z,13.80
2022-11-08T07:37:26.700Z,13.27
2022-11-08T07:40:00.717Z,12.70
2022-11-08T07:43:04.692Z,10.70
2022-11-08T07:45:32.320Z,11.75
2022-11-08T07:48:12.044Z,10.93
2022-11-08T07:50:48.459Z,11.13
2022-11-08T07:53:22.525Z,11.10
2022-11-08T07:55:58.426Z,12.00
2022-11-08T07:58:32.509Z,10.95
2022-11-08T08:03:41.350Z,11.27
2022-11-08T08:06:16.669Z,11.60
2022-11-08T08:08:50.615Z,11.30
2022-11-08T08:11:27.178Z,10.05
2022-11-08T08:14:04.857Z,9.82
2022-11-08T08:16:38.816Z,9.82
2022-11-08T08:19:12.743Z,11.00
2022-11-08T08:21:48.110Z,9.88
2022-11-08T08:24:22.166Z,9.55
2022-11-08T08:26:56.264Z,9.90
2022-11-08T08:29:30.768Z,10.32
2022-11-08T08:32:04.709Z,8.70
2022-11-08T08:34:38.618Z,9.27
2022-11-08T08:37:15.634Z,8.70
2022-11-08T08:39:50.086Z,9.68
2022-11-08T08:42:23.997Z,7.82
2022-11-08T08:44:57.869Z,10.15
2022-11-08T08:50:05.926Z,9.20
2022-11-08T08:52:41.462Z,8.50
2022-11-08T08:55:15.463Z,8.85
2022-11-08T08:57:49.744Z,9.02
2022-11-08T09:03:18.543Z,8.25
2022-11-08T09:05:52.707Z,8.52
2022-11-08T09:08:28.623Z,8.27
2022-11-08T09:11:03.199Z,8.10
2022-11-08T09:13:37.357Z,8.38
2022-11-08T09:16:13.670Z,9.05
2022-11-08T09:18:47.686Z,8.70
2022-11-08T09:21:21.839Z,8.73
2022-11-08T09:23:57.323Z,7.28
2022-11-08T09:26:31.456Z,7.65
2022-11-08T09:29:05.428Z,8.85
2022-11-08T09:31:39.529Z,8.75
2022-11-08T09:34:16.242Z,9.48
2022-11-08T09:36:53.446Z,8.98
2022-11-08T09:39:28.780Z,8.55
2022-11-08T09:42:39.062Z,8.75
2022-11-08T09:45:29.280Z,7.13
2022-11-08T09:48:06.609Z,8.10
2022-11-08T09:50:43.632Z,8.07
2022-11-08T09:53:20.795Z,7.95
2022-11-08T09:56:00.541Z,7.88
2022-11-08T09:58:39.125Z,8.35
2022-11-08T10:01:14.466Z,8.55
2022-11-08T10:03:51.318Z,8.20
2022-11-08T10:06:40.188Z,8.05
2022-11-08T10:09:28.938Z,8.48
2022-11-08T10:12:14.097Z,7.97
2022-11-08T10:15:02.893Z,7.78
2022-11-08T10:17:51.569Z,7.50
2022-11-08T10:20:35.513Z,7.45
2022-11-08T10:23:22.823Z,7.80
2022-11-08T10:26:00.392Z,8.07
2022-11-08T10:28:39.958Z,7.70
2022-11-08T10:31:14.914Z,8.07
2022-11-08T10:33:52.780Z,8.68
2022-11-08T10:36:31.065Z,8.93
2022-11-08T10:39:13.226Z,8.30
2022-11-08T10:41:50.694Z,8.38
2022-11-08T10:44:27.824Z,7.70
2022-11-08T10:47:03.246Z,7.55
2022-11-08T10:49:40.726Z,7.82
2022-11-08T10:52:21.749Z,7.43
2022-11-08T10:54:57.104Z,7.38
2022-11-08T10:57:40.070Z,6.93
2022-11-08T11:00:26.115Z,7.43
2022-11-08T11:03:02.215Z,7.30
2022-11-08T11:05:37.701Z,7.78
2022-11-08T11:08:19.171Z,6.78
2022-11-08T11:10:53.585Z,7.20
2022-11-08T11:13:29.155Z,7.22
2022-11-08T11:16:04.652Z,7.25
2022-11-08T11:18:40.655Z,7.72
2022-11-08T11:21:18.702Z,7.32
2022-11-08T11:23:55.020Z,7.07
2022-11-08T11:26:34.626Z,6.68
2022-11-08T11:29:20.687Z,7.50
2022-11-08T11:31:56.541Z,6.93
2022-11-08T11:34:50.211Z,7.40
2022-11-08T11:37:34.255Z,6.18
2022-11-08T11:43:03.416Z,6.93
2022-11-08T11:45:44.531Z,7.25
2022-11-08T11:48:23.268Z,6.82
2022-11-08T11:50:58.462Z,6.97
2022-11-08T11:53:38.860Z,6.97
2022-11-08T11:56:42.800Z,6.68
2022-11-08T11:59:50.048Z,7.25
2022-11-08T12:03:01.342Z,6.70
2022-11-08T12:05:48.648Z,6.07
2022-11-08T12:08:31.431Z,6.65
2022-11-08T12:11:20.693Z,6.78
2022-11-08T12:14:11.140Z,5.95
2022-11-08T12:16:52.600Z,6.03
2022-11-08T12:19:42.062Z,5.97
2022-11-08T12:22:44.162Z,6.00
2022-11-08T12:25:25.006Z,6.85
2022-11-08T12:28:11.225Z,6.03
2022-11-08T12:30:51.571Z,6.68
2022-11-08T12:33:35.995Z,6.28
2022-11-08T12:36:21.152Z,6.03
2022-11-08T12:39:06.587Z,6.55
2022-11-08T12:41:49.701Z,6.82
2022-11-08T12:44:46.439Z,6.80
2022-11-08T12:47:31.032Z,7.53
2022-11-08T12:50:17.316Z,6.65
2022-11-08T12:53:07.753Z,6.10
2022-11-08T12:55:45.505Z,6.05
2022-11-08T12:58:34.532Z,6.22
2022-11-08T13:01:13.277Z,6.55
2022-11-08T13:04:21.589Z,6.53
2022-11-08T13:07:01.920Z,5.70
2022-11-08T13:09:41.631Z,6.85
2022-11-08T13:12:30.066Z,5.90
2022-11-08T13:15:05.378Z,5.38
2022-11-08T13:17:39.267Z,6.45
2022-11-08T13:20:40.880Z,5.40
2022-11-08T13:23:16.547Z,5.07
2022-11-08T13:25:50.899Z,5.90
2022-11-08T13:28:53.426Z,5.70
2022-11-08T13:31:43.297Z,5.70
2022-11-08T13:34:47.481Z,5.40
2022-11-08T13:37:39.646Z,4.90
2022-11-08T13:40:30.835Z,5.00
2022-11-08T13:43:24.841Z,5.50
2022-11-08T13:46:38.356Z,5.72
2022-11-08T13:49:21.229Z,5.82
2022-11-08T13:52:39.980Z,5.25
2022-11-08T13:55:46.473Z,5.72
2022-11-08T13:58:36.048Z,5.32
2022-11-08T14:01:50.289Z,5.80
2022-11-08T14:04:27.018Z,6.25
2022-11-08T14:07:08.161Z,4.95
2022-11-08T14:09:50.336Z,4.72
2022-11-08T14:12:31.226Z,5.53
2022-11-08T14:15:16.618Z,5.28
2022-11-08T14:17:57.206Z,4.80
2022-11-08T14:20:35.963Z,5.13
2022-11-08T14:23:22.229Z,6.47
2022-11-08T14:25:58.338Z,5.50
2022-11-08T14:28:34.251Z,4.88
2022-11-08T14:31:22.786Z,4.93
2022-11-08T14:33:59.082Z,4.43
2022-11-08T14:36:33.909Z,5.03
2022-11-08T14:39:16.635Z,5.75
2022-11-08T14:41:55.174Z,5.72
2022-11-08T14:44:30.401Z,6.03
2022-11-08T14:47:05.430Z,6.05
2022-11-08T14:49:40.807Z,5.72
2022-11-08T14:52:17.548Z,5.55
2022-11-08T14:55:01.408Z,5.30
2022-11-08T14:57:39.146Z,5.25
2022-11-08T15:00:20.753Z,5.57
2022-11-08T15:02:57.565Z,5.63
2022-11-08T15:05:38.860Z,6.60
2022-11-08T15:08:22.213Z,5.57
2022-11-08T15:10:58.616Z,6.68
2022-11-08T15:13:35.485Z,6.00
2022-11-08T15:16:10.764Z,7.07
2022-11-08T15:18:46.135Z,5.40
2022-11-08T15:21:29.617Z,6.63
2022-11-08T15:24:13.979Z,6.45
2022-11-08T15:27:08.078Z,6.93
2022-11-08T15:29:53.696Z,7.63
2022-11-08T15:32:28.069Z,6.15
2022-11-08T15:35:02.107Z,7.88
2022-11-08T15:37:39.796Z,6.70
2022-11-08T15:40:21.719Z,8.88
2022-11-08T15:42:56.156Z,8.35
2022-11-08T15:45:32.666Z,7.90
2022-11-08T15:48:22.540Z,7.45
2022-11-08T15:50:57.120Z,8.80
2022-11-08T15:53:32.410Z,7.93
2022-11-08T15:56:07.186Z,8.88
2022-11-08T15:58:41.181Z,9.50
2022-11-08T16:01:23.137Z,9.05
2022-11-08T16:03:57.114Z,11.57
2022-11-08T16:06:31.177Z,11.68
2022-11-08T16:09:06.985Z,10.05
2022-11-08T16:11:41.498Z,12.52
2022-11-08T16:14:18.835Z,14.35
2022-11-08T16:16:53.181Z,13.52
2022-11-08T16:19:27.175Z,13.40
2022-11-08T16:22:07.415Z,15.88
2022-11-08T16:24:42.741Z,14.82
2022-11-08T16:27:16.746Z,15.27
2022-11-08T16:29:50.582Z,14.90
2022-11-08T16:34:58.087Z,15.48
2022-11-08T16:40:16.613Z,14.75
2022-11-08T16:42:52.423Z,16.27
2022-11-08T16:45:50.623Z,16.85
2022-11-08T16:48:23.109Z,15.98
2022-11-08T16:51:02.061Z,15.43
2022-11-08T16:53:37.735Z,16.05
2022-11-08T16:56:13.212Z,16.25
2022-11-08T16:58:47.218Z,15.68
2022-11-08T17:01:24.909Z,14.70
2022-11-08T17:03:59.261Z,14.27
2022-11-08T17:06:33.424Z,14.77
2022-11-08T17:09:07.680Z,13.43
2022-11-08T17:11:43.100Z,14.45
2022-11-08T17:14:17.094Z,13.40
2022-11-08T17:16:53.785Z,14.85
2022-11-08T17:19:27.722Z,12.75
2022-11-08T17:22:01.652Z,13.88
2022-11-08T17:24:35.853Z,13.98
2022-11-08T17:27:11.215Z,13.02
2022-11-08T17:29:45.236Z,13.30
2022-11-08T17:32:19.282Z,13.32
2022-11-08T17:34:53.360Z,13.55
2022-11-08T17:37:27.329Z,14.15
2022-11-08T17:40:02.198Z,12.20
2022-11-08T17:42:39.115Z,14.60
2022-11-08T17:45:14.836Z,13.93
2022-11-08T17:47:48.816Z,13.43
2022-11-08T17:50:22.744Z,12.73
2022-11-08T17:52:56.738Z,13.45
2022-11-08T17:55:30.723Z,13.20
2022-11-08T17:58:06.025Z,13.43
2022-11-08T18:00:40.062Z,11.75
2022-11-08T18:03:15.975Z,11.63
2022-11-08T18:05:57.717Z,11.60
2022-11-08T18:08:33.755Z,12.02
2022-11-08T18:11:08.146Z,10.70
2022-11-08T18:13:43.923Z,11.30
2022-11-08T18:16:19.836Z,11.38
2022-11-08T18:18:53.739Z,11.52
2022-11-08T18:21:27.683Z,11.77
2022-11-08T18:24:01.632Z,11.57
2022-11-08T18:26:35.533Z,11.88
2022-11-08T18:29:11.013Z,10.70
2022-11-08T18:31:44.912Z,11.65
2022-11-08T18:34:18.939Z,11.40
2022-11-08T18:36:52.798Z,9.95
2022-11-08T18:39:26.850Z,12.05
2022-11-08T18:42:00.887Z,12.13
2022-11-08T18:44:36.294Z,10.68
2022-11-08T18:47:10.258Z,11.05
2022-11-08T18:49:44.136Z,11.32
2022-11-08T18:52:18.087Z,10.73
2022-11-08T18:54:51.976Z,10.07
2022-11-08T18:57:25.966Z,10.25
2022-11-08T19:00:01.647Z,10.57
2022-11-08T19:02:36.264Z,9.63
2022-11-08T19:05:11.036Z,10.27
2022-11-08T19:07:45.390Z,10.50
2022-11-08T19:10:19.529Z,11.27
2022-11-08T19:12:53.474Z,10.20
2022-11-08T19:15:28.717Z,10.95
2022-11-08T19:18:02.625Z,10.45
2022-11-08T19:20:36.495Z,10.20
2022-11-08T19:23:10.787Z,9.43
2022-11-08T19:25:44.909Z,10.52
2022-11-08T19:28:19.059Z,10.57
2022-11-08T19:30:55.542Z,10.65
2022-11-08T19:33:32.199Z,9.90
2022-11-08T19:36:08.549Z,9.77
2022-11-08T19:38:42.838Z,10.32
2022-11-08T19:41:18.600Z,9.95
2022-11-08T19:43:53.164Z,10.85
2022-11-08T19:46:30.250Z,9.95
2022-11-08T19:49:05.403Z,9.38
2022-11-08T19:51:39.654Z,9.43
2022-11-08T19:54:14.936Z,9.73
2022-11-08T19:57:05.789Z,10.18
2022-11-08T19:59:40.275Z,9.07
2022-11-08T20:02:15.886Z,10.25
2022-11-08T20:04:50.118Z,9.35
2022-11-08T20:07:24.018Z,9.30
2022-11-08T20:09:57.960Z,9.50
2022-11-08T20:12:33.594Z,8.68
2022-11-08T20:15:08.840Z,9.85
2022-11-08T20:17:44.113Z,9.70
2022-11-08T20:20:18.243Z,8.63
2022-11-08T20:22:52.161Z,8.60
2022-11-08T20:25:26.320Z,9.68
2022-11-08T20:28:00.130Z,8.95
2022-11-08T20:33:09.085Z,9.27
2022-11-08T20:35:42.952Z,8.90
2022-11-08T20:38:17.908Z,8.68
2022-11-08T20:40:53.715Z,9.38
2022-11-08T20:43:27.925Z,8.90
2022-11-08T20:46:05.492Z,7.70
2022-11-08T20:48:42.918Z,8.52
2022-11-08T20:51:19.758Z,7.53
2022-11-08T20:53:53.597Z,9.23
2022-11-08T20:59:01.343Z,9.30
2022-11-08T21:04:11.472Z,8.10
2022-11-08T21:06:45.965Z,8.68
2022-11-08T21:09:48.986Z,8.07
2022-11-08T21:12:14.098Z,7.82
2022-11-08T21:14:48.064Z,8.98
2022-11-08T21:17:22.757Z,7.65
2022-11-08T21:19:58.380Z,7.78
2022-11-08T21:22:32.368Z,8.05
2022-11-08T21:25:07.039Z,8.93
2022-11-08T21:27:41.103Z,10.85
2022-11-08T21:30:15.498Z,8.77
2022-11-08T21:32:49.468Z,8.25
2022-11-08T21:35:25.046Z,7.28
2022-11-08T21:37:58.965Z,8.40
2022-11-08T21:40:33.135Z,9.10
2022-11-08T21:43:07.090Z,8.23
2022-11-08T21:45:41.266Z,8.65
2022-11-08T21:48:15.725Z,8.23
2022-11-08T21:50:51.351Z,7.90
2022-11-08T21:53:25.335Z,8.00
2022-11-08T21:55:59.431Z,8.75
2022-11-08T21:58:33.360Z,8.23
2022-11-08T22:01:08.056Z,7.90
2022-11-08T22:03:42.141Z,9.25
2022-11-08T22:06:17.478Z,8.52
2022-11-08T22:08:51.793Z,7.82
2022-11-08T22:11:25.845Z,8.80
2022-11-08T22:13:59.756Z,7.70
2022-11-08T22:16:33.699Z,9.93
2022-11-08T22:19:08.049Z,8.50
2022-11-08T22:21:46.216Z,7.70
2022-11-08T22:24:21.347Z,8.63
2022-11-08T22:26:55.409Z,8.55
2022-11-08T22:29:29.316Z,8.55
2022-11-08T22:32:03.813Z,8.32
2022-11-08T22:34:37.781Z,8.00
2022-11-08T22:37:13.091Z,8.02
2022-11-08T22:39:47.002Z,7.30
2022-11-08T22:42:20.916Z,7.82
2022-11-08T22:44:54.869Z,8.23
2022-11-08T22:47:28.738Z,8.05
2022-11-08T22:50:02.689Z,8.32
2022-11-08T22:52:38.083Z,7.72
2022-11-08T22:55:12.142Z,8.50
2022-11-08T22:57:46.082Z,8.43
2022-11-08T23:00:21.736Z,8.43
2022-11-08T23:02:55.844Z,8.85
2022-11-08T23:05:29.977Z,8.98
2022-11-08T23:08:05.676Z,8.20
2022-11-08T23:11:08.875Z,8.93
2022-11-08T23:14:00.226Z,8.50
2022-11-08T23:16:37.346Z,8.55
2022-11-08T23:19:30.943Z,8.02
2022-11-08T23:22:23.869Z,7.47
2022-11-08T23:24:59.692Z,8.68
2022-11-08T23:27:53.339Z,8.55
2022-11-08T23:30:44.804Z,7.63
2022-11-08T23:33:20.243Z,8.07
2022-11-08T23:36:16.054Z,7.20
2022-11-08T23:38:50.013Z,9.07
2022-11-08T23:41:43.108Z,8.35
2022-11-08T23:44:25.904Z,8.48
2022-11-08T23:47:01.156Z,8.57
2022-11-08T23:49:35.220Z,7.55
2022-11-08T23:52:09.384Z,8.57
2022-11-08T23:54:43.317Z,8.20
2022-11-08T23:57:18.741Z,8.55
2022-11-08T23:59:52.727Z,7.57
